Flugplatz Memmingen (ETSM)

Hier findest Du alle Informationen zum Flugplatz Memmingen (ETSM).

Informationen für Piloten zum Flugplatz Memmingen

Hier findest Du alle relevanten Informationen, die Du als Pilot benötigst, um Memmingen anzufliegen.

Flugplatz: Memmingen ICAO-Code: ETSM
Frequenz Turm: 122,100 Mhz GAFOR Gebiet: 72
Frequenz Ground: 122,100 Mhz Mogas: nein
Platzrunde: - Landegebühr: -
Platzhöhe: 2.081 ft Sunrise: 03:45 Uhr UTC
Pisten: 06/24 - 2.400 m x , ASPH Sunset: 19:05 Uhr UTC

Mitglieder, die in Memmingen fliegen

Flugwetter am Flugplatz Memmingen

Die METAR Information stammen aus EDNY (64.92 km entfernt).

METAR Code:
2024/07/23 07:50
EDNY 230750Z VRB02KT 9999 FEW035 OVC050 20/15 Q1022

Flugschulen am Flugplatz Memmingen

Am Flugplatz Memmingen gibt es eine Flugschule.

Benachbarte Flugplätze und Flugschulen

Es gibt 15 weitere Flugplätze in einem Umkreis von 50 km um den Flugplatz Memmingen.

Jetzt anmelden

Passwort vergessen

Umfrage Archiv

Wie häufig haltet Ihr die Halbkreisflugregel ein?

Eher häufig!
36.6 %
Immer!
30.5 %
Hin und wieder!
16.8 %
Nie!
9.3 %
Eher selten!
6.8 %
Stimmen: 279 | Diskussion
Anzeige: Roland Aircraft
Statistik Alle Mitglieder

Aktuell sind 26 Besucher online, davon 3 Mitglieder und 23 Gäste.


Mitglieder online:
Moskito_Andi  pedrob  *Chilla 

Anzeige: EasyVFR